Time;durP1;ratioP1;P1;durP2;ratioP2;P2;SDS_P1;SDS_P2;PMS_P1;PMS_P2;Temp;Humidity;BMP_temperature;BMP_pressure;BME280_temperature;BME280_humidity;BME280_pressure;Samples;Min_cycle;Max_cycle;Signal;HPM_P1;HPM_P2
2021/03/17 00:00:43;;;;;;;8.43;5.23;;;;;;;;;;5015592;28;20423;-70
2021/03/17 00:03:09;;;;;;;10.30;5.40;;;;;;;;;;5015415;28;20400;-70
2021/03/17 00:05:36;;;;;;;8.50;5.40;;;;;;;;;;5013337;28;20467;-70
2021/03/17 00:08:02;;;;;;;9.50;6.13;;;;;;;;;;5014939;28;20409;-70
2021/03/17 00:10:31;;;;;;;4.93;3.47;;;;;;;;;;5013936;28;20422;-70
2021/03/17 00:12:57;;;;;;;6.03;3.63;;;;;;;;;;5015034;28;20404;-70
2021/03/17 00:15:24;;;;;;;4.77;3.43;;;;;;;;;;5014220;28;20512;-70
2021/03/17 00:17:51;;;;;;;5.33;3.47;;;;;;;;;;5014653;28;20408;-70
2021/03/17 00:20:17;;;;;;;6.30;3.53;;;;;;;;;;5011261;28;20822;-70
2021/03/17 00:22:43;;;;;;;5.37;3.63;;;;;;;;;;5013734;28;20441;-70
2021/03/17 00:25:10;;;;;;;4.70;2.97;;;;;;;;;;5013672;28;20545;-70
2021/03/17 00:27:36;;;;;;;8.47;4.53;;;;;;;;;;5014616;28;20489;-70
2021/03/17 00:30:02;;;;;;;4.30;3.20;;;;;;;;;;5013775;28;20424;-70
2021/03/17 00:32:28;;;;;;;5.97;4.13;;;;;;;;;;5015633;28;20407;-71
2021/03/17 00:34:54;;;;;;;8.37;4.63;;;;;;;;;;5014834;28;20486;-71
2021/03/17 00:37:20;;;;;;;6.63;4.70;;;;;;;;;;5016221;28;20406;-71
2021/03/17 00:39:46;;;;;;;5.00;3.00;;;;;;;;;;5015322;28;20427;-71
2021/03/17 00:42:12;;;;;;;4.43;3.10;;;;;;;;;;5013134;28;20919;-71
2021/03/17 00:44:38;;;;;;;4.00;3.10;;;;;;;;;;5013624;28;20458;-71
2021/03/17 00:47:04;;;;;;;5.93;3.53;;;;;;;;;;5014087;28;20455;-71
2021/03/17 00:49:30;;;;;;;7.00;3.93;;;;;;;;;;5012999;28;20505;-71
2021/03/17 00:51:56;;;;;;;6.07;4.23;;;;;;;;;;5014778;28;20403;-71
2021/03/17 00:54:22;;;;;;;8.40;3.87;;;;;;;;;;5013694;28;20432;-71
2021/03/17 00:56:49;;;;;;;8.80;4.13;;;;;;;;;;5014448;28;20488;-71
2021/03/17 00:59:15;;;;;;;5.17;3.60;;;;;;;;;;5013467;28;20992;-71
2021/03/17 01:01:41;;;;;;;8.47;3.83;;;;;;;;;;5014206;28;20440;-71
2021/03/17 01:04:07;;;;;;;5.93;4.03;;;;;;;;;;5013363;28;20768;-70
2021/03/17 01:06:33;;;;;;;5.50;3.50;;;;;;;;;;5005128;28;20421;-71
2021/03/17 01:08:59;;;;;;;5.83;3.77;;;;;;;;;;4996498;28;20507;-71
2021/03/17 01:11:25;;;;;;;6.97;4.10;;;;;;;;;;5014159;28;20421;-71
2021/03/17 01:13:51;;;;;;;5.17;4.20;;;;;;;;;;5013016;28;20388;-71
2021/03/17 01:16:17;;;;;;;4.90;3.93;;;;;;;;;;5014100;28;20467;-71
2021/03/17 01:18:43;;;;;;;5.27;4.30;;;;;;;;;;5014337;28;20468;-72
2021/03/17 01:21:09;;;;;;;4.80;3.87;;;;;;;;;;5017035;28;20446;-71
2021/03/17 01:23:35;;;;;;;9.70;4.50;;;;;;;;;;5016694;28;20411;-71
2021/03/17 01:26:02;;;;;;;8.03;5.57;;;;;;;;;;5017054;28;20476;-71
2021/03/17 01:28:28;;;;;;;4.93;4.03;;;;;;;;;;5016503;28;20423;-71
2021/03/17 01:30:56;;;;;;;6.60;4.63;;;;;;;;;;5016379;28;20477;-71
2021/03/17 01:33:24;;;;;;;5.93;4.77;;;;;;;;;;5018016;28;20477;-71
2021/03/17 01:35:50;;;;;;;5.97;4.30;;;;;;;;;;5016727;28;20459;-71
2021/03/17 01:38:16;;;;;;;5.77;4.53;;;;;;;;;;5015565;28;20416;-71
2021/03/17 01:40:44;;;;;;;5.50;4.47;;;;;;;;;;5013197;28;20796;-71
2021/03/17 01:43:10;;;;;;;9.03;5.43;;;;;;;;;;5014209;28;20487;-71
2021/03/17 01:45:37;;;;;;;8.23;5.77;;;;;;;;;;5012876;28;20469;-71
2021/03/17 01:48:03;;;;;;;11.00;5.67;;;;;;;;;;5013599;28;20459;-71
2021/03/17 01:50:34;;;;;;;5.67;4.70;;;;;;;;;;5012525;28;20917;-71
2021/03/17 01:53:02;;;;;;;6.40;4.80;;;;;;;;;;5012671;28;20906;-71
2021/03/17 01:55:28;;;;;;;6.83;5.33;;;;;;;;;;5011885;28;20461;-71
2021/03/17 01:57:54;;;;;;;7.53;5.13;;;;;;;;;;5013671;28;20405;-71
2021/03/17 02:00:20;;;;;;;10.77;5.47;;;;;;;;;;5012670;28;20429;-71
2021/03/17 02:02:50;;;;;;;5.80;3.77;;;;;;;;;;5013481;28;20439;-71
2021/03/17 02:05:18;;;;;;;4.20;3.23;;;;;;;;;;5003091;28;20468;-71
2021/03/17 02:07:44;;;;;;;4.63;3.17;;;;;;;;;;5012666;28;20484;-71
2021/03/17 02:10:12;;;;;;;4.80;3.20;;;;;;;;;;5012998;28;20434;-71
2021/03/17 02:12:48;;;;;;;5.30;3.40;;;;;;;;;;5015420;28;20913;-71
2021/03/17 02:15:33;;;;;;;6.40;2.87;;;;;;;;;;5015742;28;20463;-71
2021/03/17 02:18:03;;;;;;;5.90;3.40;;;;;;;;;;5016604;28;20407;-71
2021/03/17 02:20:44;;;;;;;4.87;3.50;;;;;;;;;;5015855;28;20417;-71
2021/03/17 02:23:30;;;;;;;4.00;3.13;;;;;;;;;;5016548;28;20399;-71
2021/03/17 02:26:28;;;;;;;4.53;3.43;;;;;;;;;;5014173;28;20882;-71
2021/03/17 02:29:12;;;;;;;5.27;2.87;;;;;;;;;;4994099;28;20427;-71
2021/03/17 02:31:41;;;;;;;4.23;3.13;;;;;;;;;;5014375;28;20426;-71
2021/03/17 02:34:08;;;;;;;3.30;2.43;;;;;;;;;;5015255;28;20790;-71
2021/03/17 02:36:38;;;;;;;2.77;2.37;;;;;;;;;;5015215;28;21007;-71
2021/03/17 02:39:13;;;;;;;4.00;2.80;;;;;;;;;;5016346;28;20403;-71
2021/03/17 02:41:46;;;;;;;3.40;2.60;;;;;;;;;;5015754;28;20422;-71
2021/03/17 02:44:14;;;;;;;2.47;2.20;;;;;;;;;;5016339;28;20404;-71
2021/03/17 02:46:40;;;;;;;4.73;2.83;;;;;;;;;;5015056;28;20486;-71
2021/03/17 02:49:08;;;;;;;4.73;3.17;;;;;;;;;;5016211;28;20408;-71
2021/03/17 02:51:39;;;;;;;4.20;3.03;;;;;;;;;;5015168;28;20425;-71
2021/03/17 02:54:08;;;;;;;4.80;3.63;;;;;;;;;;5015099;28;20415;-71
2021/03/17 02:56:36;;;;;;;4.50;3.97;;;;;;;;;;5015255;28;20451;-71
2021/03/17 02:59:02;;;;;;;3.60;3.03;;;;;;;;;;5016216;28;20832;-71
2021/03/17 03:01:30;;;;;;;4.30;3.40;;;;;;;;;;5014954;28;20425;-71
2021/03/17 03:03:57;;;;;;;6.00;4.53;;;;;;;;;;5017221;28;20817;-71
2021/03/17 03:06:24;;;;;;;6.53;4.30;;;;;;;;;;5016788;28;20466;-71
2021/03/17 03:08:50;;;;;;;6.70;4.07;;;;;;;;;;5018579;28;20784;-71
2021/03/17 03:11:16;;;;;;;6.90;5.13;;;;;;;;;;5017371;28;20439;-71
2021/03/17 03:13:43;;;;;;;5.37;4.27;;;;;;;;;;5018224;28;20903;-71
2021/03/17 03:16:10;;;;;;;7.83;5.30;;;;;;;;;;5016899;28;20448;-71
2021/03/17 03:18:36;;;;;;;7.30;5.17;;;;;;;;;;5015866;28;20410;-71
2021/03/17 03:21:06;;;;;;;8.50;5.80;;;;;;;;;;5014683;28;20968;-71
2021/03/17 03:23:32;;;;;;;6.50;4.50;;;;;;;;;;5015576;28;20894;-71
2021/03/17 03:25:59;;;;;;;7.70;5.20;;;;;;;;;;5014196;28;20486;-71
2021/03/17 03:28:25;;;;;;;9.27;6.43;;;;;;;;;;5014263;28;20416;-71
2021/03/17 03:30:52;;;;;;;6.90;5.00;;;;;;;;;;5014528;28;20939;-71
2021/03/17 03:33:19;;;;;;;8.70;6.30;;;;;;;;;;5015346;28;20832;-71
2021/03/17 03:35:46;;;;;;;7.40;6.10;;;;;;;;;;5014808;28;20831;-71
2021/03/17 03:38:12;;;;;;;9.23;7.10;;;;;;;;;;5015279;28;20416;-71
2021/03/17 03:40:39;;;;;;;10.17;6.73;;;;;;;;;;5014441;28;20943;-71
2021/03/17 03:43:06;;;;;;;8.90;6.40;;;;;;;;;;5015385;28;20414;-71
2021/03/17 03:45:32;;;;;;;9.73;6.77;;;;;;;;;;5013328;28;20555;-71
2021/03/17 03:47:58;;;;;;;10.20;7.30;;;;;;;;;;5015379;28;20487;-71
2021/03/17 03:50:25;;;;;;;12.10;7.10;;;;;;;;;;5014090;28;20520;-71
2021/03/17 03:53:10;;;;;;;11.77;7.70;;;;;;;;;;5015675;28;20436;-71
2021/03/17 03:55:55;;;;;;;14.57;7.87;;;;;;;;;;5014113;28;20975;-71
2021/03/17 03:58:26;;;;;;;9.47;6.37;;;;;;;;;;4995734;28;20413;-71
2021/03/17 04:00:53;;;;;;;10.23;6.60;;;;;;;;;;5001557;28;20433;-71
2021/03/17 04:03:20;;;;;;;10.73;7.33;;;;;;;;;;5013459;28;20433;-71
2021/03/17 04:05:46;;;;;;;11.83;7.70;;;;;;;;;;5013614;28;20525;-71
2021/03/17 04:08:18;;;;;;;12.50;7.03;;;;;;;;;;5014734;28;20478;-71
2021/03/17 04:10:45;;;;;;;9.23;5.67;;;;;;;;;;5013821;28;20786;-71
2021/03/17 04:13:12;;;;;;;6.77;4.87;;;;;;;;;;5014572;28;20418;-71
2021/03/17 04:15:39;;;;;;;9.90;4.97;;;;;;;;;;5013501;28;20450;-71
2021/03/17 04:18:13;;;;;;;7.03;5.27;;;;;;;;;;5014316;28;20495;-71
2021/03/17 04:20:47;;;;;;;6.53;4.50;;;;;;;;;;5013086;28;20438;-71
2021/03/17 04:23:13;;;;;;;6.23;4.60;;;;;;;;;;5014082;28;20510;-71
2021/03/17 04:25:42;;;;;;;10.43;4.93;;;;;;;;;;5012844;28;20457;-71
2021/03/17 04:28:11;;;;;;;7.47;4.50;;;;;;;;;;5014259;28;20742;-71
2021/03/17 04:30:37;;;;;;;8.07;4.73;;;;;;;;;;5012166;28;20415;-71
2021/03/17 04:33:03;;;;;;;6.87;4.50;;;;;;;;;;5012548;28;20416;-71
2021/03/17 04:35:29;;;;;;;5.73;4.40;;;;;;;;;;5012927;28;20920;-71
2021/03/17 04:37:56;;;;;;;8.00;4.60;;;;;;;;;;5014017;28;20402;-71
2021/03/17 04:40:23;;;;;;;7.13;5.10;;;;;;;;;;5012925;28;20411;-70
2021/03/17 04:42:49;;;;;;;8.70;4.67;;;;;;;;;;5013830;28;20490;-70
2021/03/17 04:45:17;;;;;;;5.43;4.27;;;;;;;;;;5012584;28;20502;-70
2021/03/17 04:47:44;;;;;;;7.97;5.50;;;;;;;;;;5012364;28;20939;-71
2021/03/17 04:50:17;;;;;;;8.03;5.37;;;;;;;;;;5013770;28;20417;-71
2021/03/17 04:52:44;;;;;;;6.13;4.93;;;;;;;;;;5013186;28;20420;-71
2021/03/17 04:55:11;;;;;;;8.00;5.30;;;;;;;;;;5013923;28;20431;-71
2021/03/17 04:57:38;;;;;;;9.60;5.83;;;;;;;;;;4995909;28;20854;-71
2021/03/17 05:00:07;;;;;;;9.33;5.40;;;;;;;;;;4994230;28;20467;-71
2021/03/17 05:02:35;;;;;;;9.83;6.00;;;;;;;;;;5010943;28;20929;-70
2021/03/17 05:05:01;;;;;;;7.83;5.63;;;;;;;;;;5013329;28;21018;-70
2021/03/17 05:07:28;;;;;;;6.83;4.67;;;;;;;;;;5011842;28;20422;-71
2021/03/17 05:09:54;;;;;;;7.70;4.90;;;;;;;;;;5013676;28;20405;-70
2021/03/17 05:12:20;;;;;;;7.00;5.07;;;;;;;;;;5012703;28;20477;-70
2021/03/17 05:14:46;;;;;;;7.77;5.30;;;;;;;;;;5012187;28;20509;-70
2021/03/17 05:17:13;;;;;;;7.20;5.33;;;;;;;;;;5013066;28;20440;-70
2021/03/17 05:19:41;;;;;;;9.03;5.30;;;;;;;;;;5014396;28;20411;-71
2021/03/17 05:22:08;;;;;;;10.60;5.00;;;;;;;;;;5012651;28;20440;-71
2021/03/17 05:24:35;;;;;;;8.30;5.33;;;;;;;;;;5013111;28;20525;-71
2021/03/17 05:27:03;;;;;;;8.77;5.80;;;;;;;;;;5009019;28;20455;-71
2021/03/17 05:29:30;;;;;;;12.07;6.93;;;;;;;;;;4996731;28;20415;-71
2021/03/17 05:31:57;;;;;;;8.57;6.10;;;;;;;;;;5004074;28;20787;-71
2021/03/17 05:34:23;;;;;;;9.87;6.23;;;;;;;;;;5013394;28;20400;-71
2021/03/17 05:36:49;;;;;;;11.63;6.80;;;;;;;;;;5011376;28;20453;-71
2021/03/17 05:39:15;;;;;;;14.10;7.80;;;;;;;;;;5013424;28;20498;-71
2021/03/17 05:41:42;;;;;;;11.87;7.73;;;;;;;;;;5012638;28;20790;-71
2021/03/17 05:44:08;;;;;;;11.00;7.13;;;;;;;;;;5013741;28;20411;-71
2021/03/17 05:46:35;;;;;;;12.13;7.40;;;;;;;;;;5016699;28;20538;-71
2021/03/17 05:49:01;;;;;;;15.33;9.30;;;;;;;;;;5017602;28;20407;-71
2021/03/17 05:51:27;;;;;;;13.53;7.30;;;;;;;;;;5015722;28;20525;-71
2021/03/17 05:53:53;;;;;;;11.80;7.40;;;;;;;;;;5016466;28;20972;-71
2021/03/17 05:56:20;;;;;;;10.87;7.53;;;;;;;;;;5013399;28;20451;-71
2021/03/17 05:58:46;;;;;;;10.83;6.97;;;;;;;;;;5017655;28;20504;-71
2021/03/17 06:01:14;;;;;;;13.60;8.53;;;;;;;;;;5016956;28;20527;-71
2021/03/17 06:03:40;;;;;;;13.80;8.47;;;;;;;;;;5017616;28;20882;-71
2021/03/17 06:06:06;;;;;;;11.23;8.57;;;;;;;;;;5015506;28;20477;-70
2021/03/17 06:08:37;;;;;;;12.83;8.07;;;;;;;;;;5016745;28;20400;-70
2021/03/17 06:11:04;;;;;;;16.37;9.90;;;;;;;;;;5008209;28;20452;-70
2021/03/17 06:13:31;;;;;;;12.63;7.93;;;;;;;;;;5003852;28;20423;-71
2021/03/17 06:15:59;;;;;;;13.20;7.60;;;;;;;;;;5015528;28;20455;-70
2021/03/17 06:18:28;;;;;;;12.17;7.43;;;;;;;;;;5016540;28;20480;-71
2021/03/17 06:20:55;;;;;;;13.03;6.83;;;;;;;;;;5016008;28;20415;-71
2021/03/17 06:23:21;;;;;;;13.70;8.50;;;;;;;;;;5017084;28;20765;-71
2021/03/17 06:25:48;;;;;;;12.53;8.07;;;;;;;;;;5015936;28;21081;-71
2021/03/17 06:28:14;;;;;;;12.97;8.10;;;;;;;;;;5014959;28;20423;-71
2021/03/17 06:30:41;;;;;;;11.90;8.37;;;;;;;;;;5013978;28;20422;-71
2021/03/17 06:33:07;;;;;;;13.27;8.70;;;;;;;;;;5013003;28;20468;-70
2021/03/17 06:35:34;;;;;;;12.80;7.93;;;;;;;;;;5013219;28;21325;-71
2021/03/17 06:38:00;;;;;;;12.57;7.17;;;;;;;;;;5008044;28;20425;-71
2021/03/17 06:40:26;;;;;;;12.50;8.33;;;;;;;;;;5005020;28;20450;-71
2021/03/17 06:42:53;;;;;;;13.17;9.50;;;;;;;;;;5013377;28;20435;-71
2021/03/17 06:45:32;;;;;;;17.23;10.10;;;;;;;;;;5014828;28;20463;-72
2021/03/17 06:48:17;;;;;;;9.17;7.53;;;;;;;;;;5014749;28;20423;-71
2021/03/17 06:50:43;;;;;;;13.13;8.80;;;;;;;;;;5013247;28;20911;-70
2021/03/17 06:53:09;;;;;;;12.13;8.27;;;;;;;;;;5015092;28;21002;-70
2021/03/17 06:55:35;;;;;;;11.90;8.70;;;;;;;;;;5002084;28;20484;-70
2021/03/17 06:58:01;;;;;;;13.73;9.07;;;;;;;;;;5010112;28;21005;-71
2021/03/17 07:00:34;;;;;;;13.93;8.40;;;;;;;;;;5012188;28;20441;-72
2021/03/17 07:03:04;;;;;;;17.48;10.65;;;;;;;;;;5013558;28;20435;-72
2021/03/17 07:05:35;;;;;;;13.73;9.37;;;;;;;;;;5014987;28;20203;-72
2021/03/17 07:08:02;;;;;;;17.10;8.70;;;;;;;;;;5012665;28;20773;-73
2021/03/17 07:10:28;;;;;;;16.10;9.10;;;;;;;;;;5016049;28;20413;-76
2021/03/17 07:12:55;;;;;;;12.87;9.47;;;;;;;;;;5002030;28;20439;-77
2021/03/17 07:15:21;;;;;;;16.03;9.60;;;;;;;;;;4996390;28;20600;-76
2021/03/17 07:17:47;;;;;;;14.40;8.10;;;;;;;;;;5009239;28;20957;-73
2021/03/17 07:20:13;;;;;;;16.73;10.40;;;;;;;;;;5016194;28;20413;-79
2021/03/17 07:22:39;;;;;;;18.67;9.80;;;;;;;;;;5016935;28;20455;-76
2021/03/17 07:25:06;;;;;;;16.87;9.50;;;;;;;;;;5015139;28;21021;-77
2021/03/17 07:27:33;;;;;;;11.47;8.23;;;;;;;;;;5013489;28;20418;-76
2021/03/17 07:30:03;;;;;;;13.93;8.93;;;;;;;;;;5012235;28;20419;-74
2021/03/17 07:32:49;;;;;;;13.70;9.40;;;;;;;;;;5014405;28;20435;-74
2021/03/17 07:35:44;;;;;;;13.20;8.50;;;;;;;;;;5013402;28;20458;-72
2021/03/17 07:38:12;;;;;;;16.30;9.53;;;;;;;;;;4987072;28;20478;-71
2021/03/17 07:40:43;;;;;;;15.63;8.53;;;;;;;;;;4996825;28;20471;-71
2021/03/17 07:43:09;;;;;;;15.50;8.70;;;;;;;;;;5012896;28;20517;-74
2021/03/17 07:45:36;;;;;;;15.60;9.82;;;;;;;;;;4996065;28;20436;-69
2021/03/17 07:48:10;;;;;;;11.73;9.20;;;;;;;;;;5007579;28;20168;-69
2021/03/17 07:50:37;;;;;;;15.83;9.90;;;;;;;;;;5004743;28;20502;-69
2021/03/17 07:53:06;;;;;;;16.13;8.70;;;;;;;;;;5004334;28;20418;-70
2021/03/17 07:55:34;;;;;;;12.17;8.20;;;;;;;;;;4995364;28;20456;-71
2021/03/17 07:58:00;;;;;;;10.75;7.75;;;;;;;;;;5006162;28;20425;-71
2021/03/17 08:00:26;;;;;;;14.80;8.83;;;;;;;;;;5013276;28;20175;-70
2021/03/17 08:02:54;;;;;;;10.60;7.60;;;;;;;;;;5004728;28;20765;-74
2021/03/17 08:05:20;;;;;;;12.93;8.55;;;;;;;;;;5005618;28;20521;-75
2021/03/17 08:07:48;;;;;;;12.23;8.82;;;;;;;;;;5002651;28;20935;-72
2021/03/17 08:10:14;;;;;;;15.83;9.67;;;;;;;;;;5007895;28;20536;-75
2021/03/17 08:12:43;;;;;;;12.83;8.07;;;;;;;;;;5006720;28;20414;-72
2021/03/17 08:15:12;;;;;;;16.33;8.80;;;;;;;;;;5002393;28;20451;-72
2021/03/17 08:17:38;;;;;;;15.50;8.23;;;;;;;;;;5008634;28;20430;-71
2021/03/17 08:20:16;;;;;;;12.87;8.57;;;;;;;;;;5034174;23;20483;-81
2021/03/17 08:22:42;;;;;;;12.63;7.57;;;;;;;;;;5063519;28;20519;-83
2021/03/17 08:25:10;;;;;;;12.43;7.80;;;;;;;;;;5069783;28;20503;-82
2021/03/17 08:27:36;;;;;;;12.27;7.90;;;;;;;;;;5059893;28;20453;-81
2021/03/17 08:30:12;;;;;;;10.17;6.77;;;;;;;;;;5058269;28;21146;-80
2021/03/17 08:33:01;;;;;;;9.63;6.33;;;;;;;;;;5063261;28;20414;-80
2021/03/17 08:35:46;;;;;;;10.23;6.97;;;;;;;;;;5065373;28;20428;-82
2021/03/17 08:38:14;;;;;;;9.40;6.10;;;;;;;;;;5067410;28;20441;-81
2021/03/17 08:40:40;;;;;;;13.07;7.77;;;;;;;;;;5068964;28;20431;-82
2021/03/17 08:43:24;;;;;;;10.00;6.90;;;;;;;;;;5059119;28;20444;-81
2021/03/17 08:45:50;;;;;;;10.57;6.40;;;;;;;;;;5067684;28;20496;-81
2021/03/17 08:48:36;;;;;;;13.20;6.20;;;;;;;;;;5068280;28;20454;-82
2021/03/17 08:51:02;;;;;;;12.87;7.47;;;;;;;;;;5069432;28;20421;-80
2021/03/17 08:53:41;;;;;;;13.33;6.60;;;;;;;;;;5066092;28;20810;-81
2021/03/17 08:56:07;;;;;;;11.00;6.37;;;;;;;;;;5061954;28;20482;-82
2021/03/17 08:58:33;;;;;;;12.43;6.50;;;;;;;;;;5059561;28;20433;-81
2021/03/17 09:01:00;;;;;;;10.13;7.13;;;;;;;;;;5061584;28;20425;-83
2021/03/17 09:03:32;;;;;;;10.43;5.93;;;;;;;;;;5056854;28;20448;-81
2021/03/17 09:06:11;;;;;;;13.47;6.73;;;;;;;;;;5060530;28;20477;-82
2021/03/17 09:08:48;;;;;;;8.63;6.70;;;;;;;;;;5057817;28;20479;-82
2021/03/17 09:11:37;;;;;;;13.83;7.80;;;;;;;;;;5052324;28;20428;-82
2021/03/17 09:14:03;;;;;;;13.70;6.90;;;;;;;;;;5051485;28;20430;-82
2021/03/17 09:16:30;;;;;;;15.47;7.57;;;;;;;;;;5068727;28;20493;-81
2021/03/17 09:19:16;;;;;;;12.03;6.90;;;;;;;;;;5067468;28;20428;-82
2021/03/17 09:21:44;;;;;;;10.07;6.83;;;;;;;;;;5072329;28;20838;-83
2021/03/17 09:24:30;;;;;;;16.10;7.47;;;;;;;;;;5057079;28;20430;-81
2021/03/17 09:27:06;;;;;;;11.07;6.77;;;;;;;;;;5056748;28;20462;-82
2021/03/17 09:29:33;;;;;;;12.50;6.60;;;;;;;;;;5060830;28;20418;-80
2021/03/17 09:32:00;;;;;;;9.07;6.57;;;;;;;;;;5069540;28;20422;-83
2021/03/17 09:34:33;;;;;;;13.00;7.93;;;;;;;;;;5071872;28;20434;-81
2021/03/17 09:37:17;;;;;;;10.50;6.70;;;;;;;;;;5073241;28;20440;-82
2021/03/17 09:39:47;;;;;;;9.40;6.10;;;;;;;;;;5053270;28;20981;-82
2021/03/17 09:42:16;;;;;;;10.43;6.70;;;;;;;;;;5069962;28;20443;-82
2021/03/17 09:44:42;;;;;;;10.63;7.70;;;;;;;;;;5073728;28;20456;-82
2021/03/17 09:47:08;;;;;;;11.63;6.17;;;;;;;;;;5077748;28;20514;-81
2021/03/17 09:49:36;;;;;;;10.83;7.00;;;;;;;;;;5078095;28;20430;-80
2021/03/17 09:52:03;;;;;;;10.10;5.93;;;;;;;;;;5071834;28;20453;-81
2021/03/17 09:54:30;;;;;;;12.93;7.47;;;;;;;;;;5069238;28;20505;-81
2021/03/17 09:56:57;;;;;;;11.10;6.30;;;;;;;;;;5071191;28;20434;-83
2021/03/17 09:59:24;;;;;;;12.93;8.70;;;;;;;;;;5071977;28;20520;-81
2021/03/17 10:01:50;;;;;;;9.53;6.17;;;;;;;;;;5070892;28;20496;-82
2021/03/17 10:04:20;;;;;;;9.20;6.47;;;;;;;;;;5069536;28;20434;-83
2021/03/17 10:06:49;;;;;;;10.43;6.03;;;;;;;;;;5072338;28;20442;-82
2021/03/17 10:09:15;;;;;;;9.93;6.10;;;;;;;;;;5072103;28;20485;-82
2021/03/17 10:11:42;;;;;;;10.33;6.57;;;;;;;;;;5056932;28;20420;-83
2021/03/17 10:14:14;;;;;;;10.37;6.63;;;;;;;;;;5064524;28;20431;-83
2021/03/17 10:16:40;;;;;;;9.17;6.10;;;;;;;;;;5067083;28;20435;-83
2021/03/17 10:19:06;;;;;;;11.70;7.47;;;;;;;;;;5064979;28;20432;-81
2021/03/17 10:21:32;;;;;;;11.40;6.80;;;;;;;;;;5070820;28;20424;-82
2021/03/17 10:23:59;;;;;;;11.90;6.60;;;;;;;;;;5069287;28;20432;-82
2021/03/17 10:26:25;;;;;;;14.73;8.10;;;;;;;;;;5073386;28;20470;-83
2021/03/17 10:28:52;;;;;;;17.03;9.20;;;;;;;;;;5074251;28;20434;-82
2021/03/17 10:31:18;;;;;;;13.37;7.70;;;;;;;;;;5072801;28;20424;-83
2021/03/17 10:33:46;;;;;;;20.53;9.10;;;;;;;;;;5077369;28;20512;-80
2021/03/17 10:36:13;;;;;;;11.73;7.43;;;;;;;;;;5073149;28;20446;-81
2021/03/17 10:38:39;;;;;;;16.23;8.30;;;;;;;;;;5076877;28;20433;-82
2021/03/17 10:41:05;;;;;;;11.20;7.70;;;;;;;;;;5076075;28;20505;-82
2021/03/17 10:43:32;;;;;;;15.40;8.10;;;;;;;;;;5072443;28;20439;-83
2021/03/17 10:46:02;;;;;;;13.20;8.27;;;;;;;;;;5068430;28;20484;-81
2021/03/17 10:48:29;;;;;;;12.93;8.40;;;;;;;;;;5068294;28;20454;-82
2021/03/17 10:50:56;;;;;;;12.73;7.93;;;;;;;;;;5071561;28;20401;-80
2021/03/17 10:53:29;;;;;;;10.30;7.53;;;;;;;;;;5068470;28;20522;-81
2021/03/17 10:56:01;;;;;;;11.80;7.37;;;;;;;;;;5070398;28;20433;-81
2021/03/17 10:58:28;;;;;;;12.87;6.87;;;;;;;;;;5070228;28;20916;-81
2021/03/17 11:00:55;;;;;;;10.70;6.70;;;;;;;;;;5072078;28;20418;-82
2021/03/17 11:03:28;;;;;;;10.67;7.30;;;;;;;;;;5067235;28;20422;-81
2021/03/17 11:06:10;;;;;;;9.80;6.57;;;;;;;;;;5079256;28;20478;-82
2021/03/17 11:08:36;;;;;;;12.70;7.00;;;;;;;;;;5069692;28;20435;-80
2021/03/17 11:11:06;;;;;;;10.00;5.30;;;;;;;;;;5060951;28;20409;-83
2021/03/17 11:13:33;;;;;;;9.30;5.50;;;;;;;;;;5067448;28;20428;-83
2021/03/17 11:15:59;;;;;;;9.60;5.73;;;;;;;;;;5068120;28;20463;-81
2021/03/17 11:18:44;;;;;;;11.60;6.67;;;;;;;;;;5058506;28;20524;-82
2021/03/17 11:21:16;;;;;;;8.50;5.90;;;;;;;;;;5069678;28;20442;-82
2021/03/17 11:23:43;;;;;;;9.83;5.60;;;;;;;;;;5069012;28;20406;-82
2021/03/17 11:26:20;;;;;;;13.10;6.40;;;;;;;;;;5067581;28;20487;-83
2021/03/17 11:28:47;;;;;;;9.07;4.97;;;;;;;;;;5067261;28;20422;-83
2021/03/17 11:31:13;;;;;;;8.67;4.87;;;;;;;;;;5051550;28;20465;-82
2021/03/17 11:33:40;;;;;;;8.63;4.97;;;;;;;;;;5064523;28;20427;-82
2021/03/17 11:36:07;;;;;;;9.73;5.40;;;;;;;;;;5071183;28;20194;-82
2021/03/17 11:38:34;;;;;;;7.93;4.20;;;;;;;;;;5065285;28;20501;-81
2021/03/17 11:41:00;;;;;;;8.40;4.83;;;;;;;;;;5060950;28;20917;-83
2021/03/17 11:43:28;;;;;;;7.33;4.20;;;;;;;;;;5063438;28;20925;-80
2021/03/17 11:45:54;;;;;;;6.43;4.20;;;;;;;;;;5065928;28;20526;-81
2021/03/17 11:48:21;;;;;;;7.97;4.30;;;;;;;;;;5066666;28;20460;-80
2021/03/17 11:50:49;;;;;;;7.57;4.07;;;;;;;;;;5068659;28;20499;-83
2021/03/17 11:53:17;;;;;;;7.20;3.90;;;;;;;;;;5064049;28;20426;-83
2021/03/17 11:55:44;;;;;;;7.20;3.10;;;;;;;;;;5064346;28;20522;-83
2021/03/17 11:58:10;;;;;;;6.10;4.07;;;;;;;;;;5068721;28;20482;-82
2021/03/17 12:00:36;;;;;;;4.83;3.50;;;;;;;;;;5070352;28;20436;-83
2021/03/17 12:03:02;;;;;;;5.57;3.33;;;;;;;;;;5069138;28;20405;-81
2021/03/17 12:05:28;;;;;;;7.00;3.40;;;;;;;;;;5069934;28;20541;-81
2021/03/17 12:07:55;;;;;;;3.70;2.67;;;;;;;;;;5068012;28;20534;-81
2021/03/17 12:10:22;;;;;;;6.53;3.50;;;;;;;;;;5070607;28;20410;-80
2021/03/17 12:12:48;;;;;;;4.67;3.40;;;;;;;;;;5069250;28;20470;-81
2021/03/17 12:15:18;;;;;;;6.60;3.30;;;;;;;;;;5067401;28;20498;-83
2021/03/17 12:17:44;;;;;;;3.93;3.17;;;;;;;;;;5068128;28;20445;-80
2021/03/17 12:20:11;;;;;;;5.67;3.50;;;;;;;;;;5069321;28;20434;-81
2021/03/17 12:22:37;;;;;;;6.10;3.70;;;;;;;;;;5068619;28;21024;-82
2021/03/17 12:25:07;;;;;;;12.37;4.47;;;;;;;;;;5067624;28;21011;-83
2021/03/17 12:27:34;;;;;;;7.00;3.60;;;;;;;;;;5068878;28;20429;-81
2021/03/17 12:30:00;;;;;;;3.37;3.00;;;;;;;;;;5070379;28;20430;-79
2021/03/17 12:32:26;;;;;;;9.50;3.50;;;;;;;;;;5070072;28;20455;-80
2021/03/17 12:34:52;;;;;;;4.93;2.83;;;;;;;;;;5065108;28;20494;-82
2021/03/17 12:37:19;;;;;;;3.30;2.90;;;;;;;;;;5058881;28;20547;-82
2021/03/17 12:39:45;;;;;;;5.50;3.30;;;;;;;;;;5068188;28;20491;-82
2021/03/17 12:42:11;;;;;;;6.07;2.73;;;;;;;;;;5054703;28;20425;-81
2021/03/17 12:44:37;;;;;;;6.50;2.70;;;;;;;;;;5062617;28;20464;-81
2021/03/17 12:47:04;;;;;;;5.10;2.50;;;;;;;;;;5061463;28;20443;-81
2021/03/17 12:49:31;;;;;;;3.63;2.43;;;;;;;;;;5069324;28;20426;-83
2021/03/17 12:51:57;;;;;;;4.13;2.43;;;;;;;;;;5066264;28;20441;-80
2021/03/17 12:54:24;;;;;;;7.27;2.70;;;;;;;;;;5062837;28;20452;-80
2021/03/17 12:56:50;;;;;;;5.13;2.23;;;;;;;;;;5069176;28;20475;-82
2021/03/17 12:59:16;;;;;;;4.20;1.97;;;;;;;;;;5064506;28;20441;-79
2021/03/17 13:01:42;;;;;;;4.20;2.07;;;;;;;;;;5061983;28;20447;-79
2021/03/17 13:04:08;;;;;;;5.57;2.13;;;;;;;;;;5068321;28;20419;-80
2021/03/17 13:06:35;;;;;;;3.47;2.10;;;;;;;;;;5067142;28;20510;-82
2021/03/17 13:09:03;;;;;;;4.40;2.90;;;;;;;;;;5066155;28;20445;-81
2021/03/17 13:11:30;;;;;;;3.67;2.07;;;;;;;;;;5068434;28;20448;-79
2021/03/17 13:13:56;;;;;;;3.57;2.70;;;;;;;;;;5066888;28;20416;-81
2021/03/17 13:16:22;;;;;;;2.40;2.00;;;;;;;;;;5067845;28;20448;-81
2021/03/17 13:18:49;;;;;;;2.93;2.20;;;;;;;;;;5074605;28;20425;-82
2021/03/17 13:21:15;;;;;;;7.03;3.10;;;;;;;;;;5068335;28;20445;-80
2021/03/17 13:23:41;;;;;;;5.27;3.07;;;;;;;;;;5070759;28;20419;-82
2021/03/17 13:26:08;;;;;;;6.97;2.90;;;;;;;;;;5063204;28;20474;-82
2021/03/17 13:28:34;;;;;;;3.60;2.53;;;;;;;;;;5061696;28;20439;-81
2021/03/17 13:31:00;;;;;;;7.50;3.70;;;;;;;;;;5059470;28;20461;-80
2021/03/17 13:33:26;;;;;;;6.30;3.10;;;;;;;;;;5052010;28;20434;-80
2021/03/17 13:35:52;;;;;;;5.20;3.23;;;;;;;;;;5060195;28;20572;-81
2021/03/17 13:38:18;;;;;;;4.73;2.90;;;;;;;;;;5056816;28;20441;-81
2021/03/17 13:40:45;;;;;;;4.13;3.00;;;;;;;;;;5055453;28;20419;-80
2021/03/17 13:43:11;;;;;;;4.77;3.20;;;;;;;;;;5052670;28;20444;-83
2021/03/17 13:45:38;;;;;;;4.53;3.10;;;;;;;;;;5062773;28;21052;-82
2021/03/17 13:48:04;;;;;;;5.87;3.67;;;;;;;;;;5059365;28;20451;-81
2021/03/17 13:50:31;;;;;;;7.63;3.17;;;;;;;;;;5060531;28;20468;-81
2021/03/17 13:52:57;;;;;;;7.97;3.78;;;;;;;;;;5072752;28;20431;-81
2021/03/17 13:55:36;;;;;;;5.63;3.17;;;;;;;;;;5058462;28;20223;-82
2021/03/17 13:58:03;;;;;;;4.63;3.47;;;;;;;;;;5053895;28;20459;-82
2021/03/17 14:00:29;;;;;;;4.40;2.50;;;;;;;;;;5058037;28;20428;-80
2021/03/17 14:02:56;;;;;;;3.90;2.60;;;;;;;;;;5055125;28;20450;-82
2021/03/17 14:05:23;;;;;;;5.33;2.90;;;;;;;;;;5057971;28;20462;-80
2021/03/17 14:07:49;;;;;;;13.10;3.30;;;;;;;;;;5056092;28;20426;-79
2021/03/17 14:10:21;;;;;;;3.40;2.13;;;;;;;;;;5058175;28;20439;-79
2021/03/17 14:12:47;;;;;;;7.30;2.90;;;;;;;;;;5060272;28;21872;-80
2021/03/17 14:15:15;;;;;;;3.40;2.50;;;;;;;;;;5057091;28;20449;-81
2021/03/17 14:17:41;;;;;;;3.40;2.30;;;;;;;;;;5066687;28;20469;-81
2021/03/17 14:20:08;;;;;;;4.57;3.00;;;;;;;;;;5066071;28;20456;-80
2021/03/17 14:22:36;;;;;;;7.47;2.53;;;;;;;;;;5057344;28;20442;-81
2021/03/17 14:25:03;;;;;;;3.73;2.40;;;;;;;;;;5067885;28;20477;-80
2021/03/17 14:27:29;;;;;;;7.53;2.97;;;;;;;;;;5063539;28;20448;-78
2021/03/17 14:29:55;;;;;;;7.83;3.47;;;;;;;;;;5064236;28;20440;-82
2021/03/17 14:32:21;;;;;;;6.77;2.77;;;;;;;;;;5067602;28;20447;-80
2021/03/17 14:34:47;;;;;;;6.90;2.60;;;;;;;;;;5061568;28;20426;-79
2021/03/17 14:37:14;;;;;;;4.80;2.40;;;;;;;;;;5065238;28;20506;-82
2021/03/17 14:39:40;;;;;;;4.77;2.43;;;;;;;;;;5068871;28;20433;-82
2021/03/17 14:42:06;;;;;;;6.40;2.43;;;;;;;;;;5069529;28;20444;-83
2021/03/17 14:44:33;;;;;;;5.67;2.37;;;;;;;;;;5070866;28;20453;-85